createdAt,value
2022-08-03T00:02:18.066Z,1.33
2022-08-03T00:04:45.514Z,1.30
2022-08-03T00:07:15.711Z,1.25
2022-08-03T00:09:42.762Z,1.00
2022-08-03T00:12:10.105Z,1.23
2022-08-03T00:14:39.833Z,1.40
2022-08-03T00:17:07.037Z,1.33
2022-08-03T00:19:34.337Z,1.60
2022-08-03T00:22:01.493Z,1.30
2022-08-03T00:24:28.641Z,1.13
2022-08-03T00:26:55.825Z,1.60
2022-08-03T00:29:23.036Z,1.10
2022-08-03T00:31:52.465Z,1.20
2022-08-03T00:34:29.870Z,1.33
2022-08-03T00:37:03.960Z,1.63
2022-08-03T00:39:31.045Z,1.50
2022-08-03T00:42:02.391Z,1.30
2022-08-03T00:44:29.406Z,1.20
2022-08-03T00:46:56.468Z,2.28
2022-08-03T00:49:24.234Z,1.35
2022-08-03T00:51:51.485Z,1.23
2022-08-03T00:54:19.033Z,1.48
2022-08-03T00:56:59.456Z,1.50
2022-08-03T00:59:30.347Z,1.30
2022-08-03T01:01:58.422Z,1.60
2022-08-03T01:04:25.517Z,1.67
2022-08-03T01:07:15.568Z,1.67
2022-08-03T01:10:14.483Z,1.85
2022-08-03T01:12:57.956Z,1.70
2022-08-03T01:15:44.983Z,2.35
2022-08-03T01:18:18.846Z,2.03
2022-08-03T01:20:49.621Z,2.42
2022-08-03T01:23:46.256Z,2.05
2022-08-03T01:26:28.816Z,2.30
2022-08-03T01:29:52.996Z,2.25
2022-08-03T01:32:59.599Z,2.85
2022-08-03T01:35:28.332Z,2.17
2022-08-03T01:38:04.600Z,2.30
2022-08-03T01:40:34.576Z,2.63
2022-08-03T01:43:04.646Z,2.50
2022-08-03T01:45:34.025Z,2.28
2022-08-03T01:48:02.887Z,2.78
2022-08-03T01:50:31.301Z,2.38
2022-08-03T01:52:59.401Z,2.60
2022-08-03T01:55:31.915Z,3.13
2022-08-03T01:58:05.535Z,2.60
2022-08-03T02:00:37.327Z,2.75
2022-08-03T02:03:13.361Z,2.45
2022-08-03T02:05:45.626Z,2.75
2022-08-03T02:08:18.305Z,2.60
2022-08-03T02:10:47.536Z,2.80
2022-08-03T02:13:17.188Z,2.90
2022-08-03T02:15:44.964Z,2.38
2022-08-03T02:18:13.300Z,2.30
2022-08-03T02:20:43.536Z,3.00
2022-08-03T02:23:10.821Z,2.67
2022-08-03T02:25:46.096Z,2.80
2022-08-03T02:28:20.027Z,3.03
2022-08-03T02:30:54.299Z,2.28
2022-08-03T02:33:30.803Z,2.70
2022-08-03T02:36:00.206Z,2.38
2022-08-03T02:38:33.200Z,2.30
2022-08-03T02:41:07.287Z,2.50
2022-08-03T02:43:57.702Z,2.70
2022-08-03T02:46:28.958Z,2.95
2022-08-03T02:48:57.662Z,2.63
2022-08-03T02:51:28.248Z,2.90
2022-08-03T02:53:57.940Z,2.72
2022-08-03T02:56:26.020Z,2.90
2022-08-03T02:58:54.828Z,3.15
2022-08-03T03:01:23.253Z,3.10
2022-08-03T03:03:52.365Z,2.92
2022-08-03T03:06:21.420Z,2.90
2022-08-03T03:08:52.522Z,2.72
2022-08-03T03:11:28.062Z,2.78
2022-08-03T03:13:58.438Z,2.90
2022-08-03T03:16:27.099Z,2.33
2022-08-03T03:19:03.155Z,3.38
2022-08-03T03:21:40.471Z,2.85
2022-08-03T03:24:09.722Z,2.90
2022-08-03T03:26:42.282Z,3.10
2022-08-03T03:29:09.961Z,2.90
2022-08-03T03:31:37.380Z,2.70
2022-08-03T03:34:05.100Z,2.42
2022-08-03T03:36:33.940Z,2.90
2022-08-03T03:39:15.623Z,2.78
2022-08-03T03:41:43.876Z,2.60
2022-08-03T03:44:10.963Z,2.42
2022-08-03T03:46:39.323Z,3.20
2022-08-03T03:49:07.443Z,2.95
2022-08-03T03:51:35.015Z,2.60
2022-08-03T03:54:05.767Z,2.55
2022-08-03T03:56:33.501Z,2.30
2022-08-03T03:59:00.677Z,2.58
2022-08-03T04:01:29.124Z,2.53
2022-08-03T04:03:56.122Z,2.35
2022-08-03T04:06:41.938Z,2.35
2022-08-03T04:09:50.855Z,2.28
2022-08-03T04:12:19.710Z,2.55
2022-08-03T04:14:51.017Z,2.10
2022-08-03T04:17:19.880Z,2.30
2022-08-03T04:19:51.460Z,2.58
2022-08-03T04:22:25.501Z,2.67
2022-08-03T04:25:03.936Z,2.58
2022-08-03T04:27:36.945Z,2.63
2022-08-03T04:30:09.136Z,2.20
2022-08-03T04:32:41.871Z,2.60
2022-08-03T04:35:12.603Z,2.20
2022-08-03T04:37:46.044Z,2.45
2022-08-03T04:40:30.724Z,2.50
2022-08-03T04:43:00.055Z,2.15
2022-08-03T04:45:31.663Z,2.67
2022-08-03T04:47:59.588Z,2.40
2022-08-03T04:50:30.561Z,2.33
2022-08-03T04:53:07.310Z,2.60
2022-08-03T04:55:36.482Z,2.50
2022-08-03T04:58:04.904Z,2.58
2022-08-03T05:00:32.184Z,2.42
2022-08-03T05:02:59.336Z,2.40
2022-08-03T05:05:26.572Z,2.60
2022-08-03T05:08:13.774Z,2.28
2022-08-03T05:10:41.039Z,2.47
2022-08-03T05:13:12.029Z,2.67
2022-08-03T05:15:43.253Z,2.60
2022-08-03T05:18:14.006Z,2.33
2022-08-03T05:20:41.665Z,3.08
2022-08-03T05:23:08.823Z,2.40
2022-08-03T05:25:36.010Z,3.15
2022-08-03T05:28:07.049Z,2.92
2022-08-03T05:30:34.644Z,2.65
2022-08-03T05:33:05.179Z,2.97
2022-08-03T05:35:55.881Z,2.53
2022-08-03T05:38:33.106Z,2.63
2022-08-03T05:41:22.366Z,3.28
2022-08-03T05:43:53.803Z,2.70
2022-08-03T05:46:24.849Z,3.50
2022-08-03T05:48:55.113Z,3.30
2022-08-03T05:51:22.304Z,2.92
2022-08-03T05:53:49.719Z,2.70
2022-08-03T05:56:17.128Z,3.05
2022-08-03T05:58:46.496Z,3.10
2022-08-03T06:01:15.002Z,2.88
2022-08-03T06:03:42.242Z,2.92
2022-08-03T06:06:09.541Z,2.70
2022-08-03T06:08:36.528Z,2.60
2022-08-03T06:11:04.778Z,2.65
2022-08-03T06:13:32.184Z,2.42
2022-08-03T06:15:59.352Z,2.63
2022-08-03T06:18:26.711Z,2.90
2022-08-03T06:20:54.267Z,2.22
2022-08-03T06:23:52.574Z,2.50
2022-08-03T06:26:12.276Z,2.35
2022-08-03T06:28:53.165Z,2.38
2022-08-03T06:31:33.210Z,2.33
2022-08-03T06:34:31.357Z,3.13
2022-08-03T06:36:53.000Z,2.95
2022-08-03T06:39:23.458Z,2.95
2022-08-03T06:41:51.621Z,3.05
2022-08-03T06:44:22.771Z,2.63
2022-08-03T06:46:49.799Z,2.45
2022-08-03T06:49:17.174Z,2.70
2022-08-03T06:52:04.147Z,2.78
2022-08-03T06:54:33.211Z,2.63
2022-08-03T06:57:03.387Z,2.90
2022-08-03T07:00:07.337Z,2.83
2022-08-03T07:02:26.815Z,2.63
2022-08-03T07:04:55.650Z,2.90
2022-08-03T07:07:22.658Z,2.50
2022-08-03T07:09:56.520Z,2.40
2022-08-03T07:12:26.323Z,2.78
2022-08-03T07:14:58.058Z,3.10
2022-08-03T07:17:28.616Z,2.50
2022-08-03T07:19:55.718Z,2.63
2022-08-03T07:22:22.881Z,3.25
2022-08-03T07:24:49.911Z,2.40
2022-08-03T07:27:17.233Z,2.88
2022-08-03T07:29:44.385Z,2.58
2022-08-03T07:32:11.592Z,2.58
2022-08-03T07:34:38.662Z,3.00
2022-08-03T07:37:05.669Z,2.50
2022-08-03T07:39:32.827Z,2.83
2022-08-03T07:41:59.900Z,2.40
2022-08-03T07:44:27.064Z,2.92
2022-08-03T07:46:55.165Z,2.83
2022-08-03T07:49:23.799Z,2.40
2022-08-03T07:52:10.994Z,2.83
2022-08-03T07:54:38.125Z,2.80
2022-08-03T07:57:05.277Z,2.28
2022-08-03T07:59:56.431Z,2.90
2022-08-03T08:05:29.657Z,3.30
2022-08-03T08:07:57.062Z,2.85
2022-08-03T08:10:28.732Z,2.83
2022-08-03T08:12:56.759Z,2.35
2022-08-03T08:15:26.875Z,2.67
2022-08-03T08:17:59.256Z,2.90
2022-08-03T08:20:31.364Z,2.55
2022-08-03T08:23:19.904Z,2.53
2022-08-03T08:25:54.530Z,3.20
2022-08-03T08:28:30.081Z,2.60
2022-08-03T08:30:59.118Z,3.05
2022-08-03T08:33:37.212Z,3.20
2022-08-03T08:36:15.387Z,2.83
2022-08-03T08:38:44.861Z,3.15
2022-08-03T08:41:16.484Z,3.35
2022-08-03T08:43:43.765Z,2.90
2022-08-03T08:46:22.921Z,3.05
2022-08-03T08:48:55.642Z,2.83
2022-08-03T08:51:52.699Z,2.95
2022-08-03T08:54:18.729Z,3.13
2022-08-03T08:56:46.758Z,2.67
2022-08-03T08:59:14.788Z,2.88
2022-08-03T09:01:41.875Z,2.75
2022-08-03T09:04:09.598Z,2.78
2022-08-03T09:06:36.892Z,3.00
2022-08-03T09:09:06.365Z,2.78
2022-08-03T09:11:54.534Z,2.40
2022-08-03T09:14:33.669Z,2.42
2022-08-03T09:17:04.691Z,2.80
2022-08-03T09:19:34.022Z,2.50
2022-08-03T09:22:17.423Z,2.38
2022-08-03T09:25:23.242Z,2.53
2022-08-03T09:27:50.437Z,3.13
2022-08-03T09:30:34.508Z,2.40
2022-08-03T09:33:10.546Z,2.70
2022-08-03T09:36:04.538Z,2.42
2022-08-03T09:38:39.021Z,2.30
2022-08-03T09:41:21.076Z,2.40
2022-08-03T09:43:48.672Z,2.28
2022-08-03T09:46:15.789Z,2.72
2022-08-03T09:48:42.804Z,3.00
2022-08-03T09:51:14.307Z,2.28
2022-08-03T09:54:01.761Z,2.70
2022-08-03T09:56:58.749Z,3.15
2022-08-03T09:59:32.366Z,3.03
2022-08-03T10:02:01.757Z,2.90
2022-08-03T10:04:29.458Z,2.22
2022-08-03T10:07:06.421Z,2.35
2022-08-03T10:09:34.004Z,2.53
2022-08-03T10:12:13.207Z,2.70
2022-08-03T10:14:42.254Z,3.03
2022-08-03T10:17:12.638Z,2.50
2022-08-03T10:19:41.310Z,2.70
2022-08-03T10:22:15.200Z,2.58
2022-08-03T10:25:07.582Z,2.47
2022-08-03T10:27:41.057Z,2.42
2022-08-03T10:30:13.946Z,2.22
2022-08-03T10:33:50.075Z,2.30
2022-08-03T10:36:01.631Z,2.72
2022-08-03T10:38:46.046Z,2.75
2022-08-03T10:41:14.160Z,2.50
2022-08-03T10:43:53.674Z,2.42
2022-08-03T10:46:21.867Z,2.65
2022-08-03T10:48:53.867Z,2.85
2022-08-03T10:51:21.812Z,2.55
2022-08-03T10:53:54.987Z,2.88
2022-08-03T10:56:50.566Z,2.30
2022-08-03T10:59:46.228Z,2.70
2022-08-03T11:02:14.922Z,2.70
2022-08-03T11:04:47.158Z,2.75
2022-08-03T11:07:17.725Z,2.85
2022-08-03T11:09:57.690Z,3.15
2022-08-03T11:12:31.148Z,2.42
2022-08-03T11:15:09.844Z,2.65
2022-08-03T11:17:46.505Z,3.05
2022-08-03T11:20:53.561Z,2.77
2022-08-03T11:24:05.224Z,2.72
2022-08-03T11:26:41.911Z,3.03
2022-08-03T11:29:30.159Z,2.75
2022-08-03T11:31:57.502Z,2.50
2022-08-03T11:34:25.299Z,3.00
2022-08-03T11:37:28.569Z,3.00
2022-08-03T11:39:57.291Z,2.75
2022-08-03T11:42:24.673Z,2.42
2022-08-03T11:44:57.783Z,2.92
2022-08-03T11:47:27.917Z,2.60
2022-08-03T11:49:59.123Z,2.78
2022-08-03T11:52:28.776Z,2.80
2022-08-03T11:54:56.707Z,2.38
2022-08-03T11:59:11.018Z,3.00
2022-08-03T12:00:29.702Z,2.53
2022-08-03T12:02:58.625Z,2.70
2022-08-03T12:05:51.652Z,2.78
2022-08-03T12:08:32.456Z,2.85
2022-08-03T12:11:04.511Z,2.60
2022-08-03T12:14:10.683Z,3.08
2022-08-03T12:16:30.301Z,2.50
2022-08-03T12:18:59.319Z,2.65
2022-08-03T12:21:26.749Z,2.70
2022-08-03T12:24:00.297Z,2.70
2022-08-03T12:26:58.105Z,2.38
2022-08-03T12:29:27.247Z,2.35
2022-08-03T12:31:56.083Z,2.10
2022-08-03T12:34:23.482Z,2.38
2022-08-03T12:37:22.109Z,2.63
2022-08-03T12:40:02.566Z,2.30
2022-08-03T12:42:37.150Z,2.25
2022-08-03T12:45:28.981Z,2.30
2022-08-03T12:48:01.287Z,2.63
2022-08-03T12:50:33.466Z,2.65
2022-08-03T12:53:03.180Z,2.30
2022-08-03T12:55:57.284Z,2.22
2022-08-03T12:58:36.048Z,2.20
2022-08-03T13:01:09.677Z,2.13
2022-08-03T13:03:50.491Z,2.42
2022-08-03T13:06:25.345Z,2.30
2022-08-03T13:09:08.506Z,2.38
2022-08-03T13:11:55.809Z,2.38
2022-08-03T13:14:23.689Z,2.28
2022-08-03T13:16:51.231Z,2.92
2022-08-03T13:19:18.371Z,2.45
2022-08-03T13:21:53.849Z,2.10
2022-08-03T13:24:33.234Z,2.03
2022-08-03T13:27:21.923Z,2.17
2022-08-03T13:29:48.225Z,2.38
2022-08-03T13:32:15.390Z,2.08
2022-08-03T13:34:42.621Z,2.22
2022-08-03T13:37:10.302Z,2.30
2022-08-03T13:39:57.598Z,2.40
2022-08-03T13:42:29.516Z,2.20
2022-08-03T13:44:56.747Z,2.22
2022-08-03T13:47:24.092Z,2.28
2022-08-03T13:49:54.348Z,2.63
2022-08-03T13:52:31.973Z,2.13
2022-08-03T13:54:59.876Z,2.53
2022-08-03T13:58:04.488Z,2.25
2022-08-03T14:00:26.445Z,2.45
2022-08-03T14:03:09.533Z,1.73
2022-08-03T14:05:41.820Z,2.37
2022-08-03T14:08:09.328Z,2.10
2022-08-03T14:10:39.754Z,2.50
2022-08-03T14:13:07.527Z,2.25
2022-08-03T14:15:37.648Z,2.38
2022-08-03T14:18:07.402Z,2.17
2022-08-03T14:20:47.905Z,2.70
2022-08-03T14:23:17.787Z,2.00
2022-08-03T14:25:51.531Z,2.03
2022-08-03T14:28:25.081Z,2.45
2022-08-03T14:30:53.860Z,2.00
2022-08-03T14:33:22.383Z,2.58
2022-08-03T14:35:49.874Z,2.17
2022-08-03T14:38:20.840Z,2.40
2022-08-03T14:40:48.751Z,2.58
2022-08-03T14:43:18.097Z,2.40
2022-08-03T14:45:45.342Z,2.22
2022-08-03T14:50:33.158Z,1.80
2022-08-03T14:50:59.904Z,2.20
2022-08-03T14:53:28.796Z,1.63
2022-08-03T14:55:56.098Z,2.03
2022-08-03T14:58:25.957Z,2.38
2022-08-03T15:00:55.450Z,1.58
2022-08-03T15:03:25.137Z,1.63
2022-08-03T15:05:56.925Z,1.90
2022-08-03T15:08:26.231Z,2.10
2022-08-03T15:10:54.735Z,1.83
2022-08-03T15:13:22.221Z,1.73
2022-08-03T15:15:50.020Z,1.73
2022-08-03T15:18:17.214Z,2.08
2022-08-03T15:20:46.234Z,2.60
2022-08-03T15:23:15.917Z,2.33
2022-08-03T15:26:04.318Z,2.20
2022-08-03T15:28:32.735Z,2.10
2022-08-03T15:31:00.697Z,2.55
2022-08-03T15:33:28.660Z,2.40
2022-08-03T15:35:57.175Z,2.38
2022-08-03T15:38:25.758Z,1.73
2022-08-03T15:40:55.016Z,1.85
2022-08-03T15:43:23.582Z,1.83
2022-08-03T15:46:12.752Z,1.65
2022-08-03T15:48:39.432Z,2.25
2022-08-03T15:51:10.003Z,2.03
2022-08-03T15:53:39.276Z,1.73
2022-08-03T15:56:12.114Z,1.58
2022-08-03T15:59:04.450Z,1.92
2022-08-03T16:01:29.101Z,1.88
2022-08-03T16:03:57.301Z,2.08
2022-08-03T16:06:29.867Z,1.75
2022-08-03T16:09:23.980Z,2.42
2022-08-03T16:11:53.873Z,2.53
2022-08-03T16:14:32.049Z,2.15
2022-08-03T16:17:00.621Z,2.22
2022-08-03T16:19:28.146Z,2.22
2022-08-03T16:21:55.339Z,2.40
2022-08-03T16:24:27.807Z,2.25
2022-08-03T16:26:56.696Z,2.20
2022-08-03T16:29:24.270Z,1.85
2022-08-03T16:31:53.002Z,2.08
2022-08-03T16:34:21.054Z,2.20
2022-08-03T16:36:48.249Z,2.33
2022-08-03T16:39:15.567Z,2.20
2022-08-03T16:41:53.975Z,2.15
2022-08-03T16:44:30.989Z,2.45
2022-08-03T16:46:59.676Z,2.35
2022-08-03T16:49:55.508Z,2.50
2022-08-03T16:52:16.781Z,2.50
2022-08-03T16:54:50.551Z,2.53
2022-08-03T16:57:56.480Z,2.50
2022-08-03T17:00:32.727Z,2.25
2022-08-03T17:03:04.100Z,2.40
2022-08-03T17:05:32.654Z,2.70
2022-08-03T17:08:15.691Z,2.28
2022-08-03T17:10:45.299Z,2.38
2022-08-03T17:13:21.431Z,2.33
2022-08-03T17:16:00.621Z,2.17
2022-08-03T17:18:38.374Z,1.98
2022-08-03T17:21:10.532Z,2.08
2022-08-03T17:24:00.057Z,1.95
2022-08-03T17:26:30.278Z,2.25
2022-08-03T17:29:12.618Z,1.70
2022-08-03T17:31:48.779Z,1.52
2022-08-03T17:34:19.118Z,1.90
2022-08-03T17:37:03.767Z,1.88
2022-08-03T17:39:57.108Z,1.20
2022-08-03T17:42:31.027Z,1.70
2022-08-03T17:45:07.677Z,1.80
2022-08-03T17:47:41.935Z,1.30
2022-08-03T17:53:23.784Z,1.70
2022-08-03T17:56:42.649Z,1.45
2022-08-03T17:59:50.917Z,1.73
2022-08-03T18:02:47.735Z,1.50
2022-08-03T18:05:22.445Z,1.97
2022-08-03T18:07:59.479Z,1.77
2022-08-03T18:10:34.559Z,1.60
2022-08-03T18:13:14.737Z,1.70
2022-08-03T18:16:01.003Z,1.45
2022-08-03T18:18:43.192Z,1.45
2022-08-03T18:21:16.670Z,1.52
2022-08-03T18:23:46.066Z,1.48
2022-08-03T18:26:19.120Z,1.73
2022-08-03T18:28:49.119Z,1.55
2022-08-03T18:31:33.156Z,1.67
2022-08-03T18:34:16.630Z,1.42
2022-08-03T18:36:48.977Z,1.40
2022-08-03T18:39:16.835Z,4.72
2022-08-03T18:41:46.988Z,2.53
2022-08-03T18:44:52.855Z,1.50
2022-08-03T18:47:51.640Z,1.30
2022-08-03T18:50:52.282Z,1.38
2022-08-03T18:54:06.264Z,1.67
2022-08-03T18:56:52.106Z,1.67
2022-08-03T18:59:41.894Z,1.88
2022-08-03T19:02:34.879Z,1.40
2022-08-03T19:05:10.978Z,1.70
2022-08-03T19:07:40.840Z,1.38
2022-08-03T19:10:15.760Z,1.70
2022-08-03T19:12:51.759Z,1.83
2022-08-03T19:15:36.406Z,1.50
2022-08-03T19:18:11.260Z,1.83
2022-08-03T19:20:41.419Z,1.40
2022-08-03T19:25:43.951Z,1.50
2022-08-03T19:28:11.237Z,1.42
2022-08-03T19:30:46.169Z,1.83
2022-08-03T19:33:21.560Z,1.75
2022-08-03T19:35:55.654Z,1.50
2022-08-03T19:38:28.465Z,2.00
2022-08-03T19:43:57.696Z,1.73
2022-08-03T19:46:31.185Z,1.30
2022-08-03T19:49:15.372Z,1.55
2022-08-03T19:51:58.972Z,1.70
2022-08-03T19:54:53.558Z,1.63
2022-08-03T19:57:25.164Z,1.67
2022-08-03T19:59:57.164Z,1.98
2022-08-03T20:02:27.229Z,1.83
2022-08-03T20:05:01.169Z,1.90
2022-08-03T20:07:33.498Z,1.65
2022-08-03T20:10:08.898Z,1.90
2022-08-03T20:12:39.435Z,1.77
2022-08-03T20:15:07.829Z,2.33
2022-08-03T20:17:55.204Z,2.03
2022-08-03T20:20:34.001Z,2.10
2022-08-03T20:23:16.680Z,2.03
2022-08-03T20:25:58.571Z,1.83
2022-08-03T20:28:50.041Z,2.00
2022-08-03T20:31:21.628Z,1.90
2022-08-03T20:33:53.452Z,1.88
2022-08-03T20:36:20.705Z,2.10
2022-08-03T20:38:49.046Z,2.20
2022-08-03T20:41:17.710Z,1.98
2022-08-03T20:43:46.001Z,1.80
2022-08-03T20:46:32.659Z,2.22
2022-08-03T20:49:06.209Z,2.30
2022-08-03T20:51:50.140Z,2.75
2022-08-03T20:54:30.866Z,2.30
2022-08-03T20:57:04.190Z,2.13
2022-08-03T20:59:47.057Z,1.83
2022-08-03T21:02:29.008Z,2.00
2022-08-03T21:05:02.979Z,1.77
2022-08-03T21:08:03.750Z,1.80
2022-08-03T21:10:28.772Z,1.85
2022-08-03T21:13:12.763Z,1.73
2022-08-03T21:13:16.225Z,1.52
2022-08-03T21:16:04.797Z,2.10
2022-08-03T21:18:43.521Z,1.80
2022-08-03T21:21:17.916Z,2.00
2022-08-03T21:23:49.764Z,2.10
2022-08-03T21:26:26.113Z,2.20
2022-08-03T21:28:56.537Z,2.03
2022-08-03T21:31:26.620Z,2.08
2022-08-03T21:33:57.219Z,2.33
2022-08-03T21:36:27.754Z,1.90
2022-08-03T21:38:57.272Z,1.67
2022-08-03T21:41:32.030Z,2.03
2022-08-03T21:44:00.921Z,2.25
2022-08-03T21:46:35.088Z,2.13
2022-08-03T21:50:05.702Z,1.85
2022-08-03T21:51:59.380Z,2.08
2022-08-03T21:54:35.842Z,1.80
2022-08-03T21:57:08.414Z,1.80
2022-08-03T21:59:38.141Z,2.00
2022-08-03T22:02:16.450Z,1.60
2022-08-03T22:04:56.304Z,1.90
2022-08-03T22:07:27.376Z,1.77
2022-08-03T22:09:57.233Z,1.83
2022-08-03T22:12:28.855Z,1.63
2022-08-03T22:15:00.820Z,2.15
2022-08-03T22:17:54.573Z,1.80
2022-08-03T22:20:20.550Z,1.90
2022-08-03T22:22:57.110Z,2.20
2022-08-03T22:25:29.446Z,2.17
2022-08-03T22:28:00.003Z,2.17
2022-08-03T22:30:27.837Z,1.80
2022-08-03T22:32:56.344Z,2.20
2022-08-03T22:35:26.313Z,2.05
2022-08-03T22:37:57.534Z,2.22
2022-08-03T22:40:24.847Z,2.10
2022-08-03T22:42:52.741Z,1.80
2022-08-03T22:46:10.628Z,2.20
2022-08-03T22:48:08.396Z,2.25
2022-08-03T22:50:35.925Z,2.17
2022-08-03T22:53:03.529Z,2.30
2022-08-03T22:55:31.122Z,1.95
2022-08-03T22:57:58.281Z,1.92
2022-08-03T23:00:25.807Z,1.90
2022-08-03T23:02:56.925Z,2.03
2022-08-03T23:06:01.692Z,1.98
2022-08-03T23:08:18.918Z,2.47
2022-08-03T23:10:47.475Z,2.20
2022-08-03T23:13:20.013Z,2.10
2022-08-03T23:16:01.420Z,1.92
2022-08-03T23:18:33.009Z,2.05
2022-08-03T23:21:11.638Z,1.98
2022-08-03T23:23:43.831Z,2.17
2022-08-03T23:26:15.710Z,2.15
2022-08-03T23:28:46.998Z,1.85
2022-08-03T23:31:15.571Z,2.83
2022-08-03T23:33:45.585Z,2.53
2022-08-03T23:36:30.768Z,2.50
2022-08-03T23:39:02.200Z,2.10
2022-08-03T23:41:30.896Z,2.30
2022-08-03T23:44:01.231Z,2.70
2022-08-03T23:46:30.427Z,2.25
2022-08-03T23:48:59.944Z,2.08
2022-08-03T23:51:44.141Z,2.33
2022-08-03T23:54:17.208Z,2.45
2022-08-03T23:57:37.609Z,2.42
